Time;durP1;ratioP1;P1;durP2;ratioP2;P2;SDS_P1;SDS_P2;PMS_P1;PMS_P2;Temp;Humidity;BMP_temperature;BMP_pressure;BME280_temperature;BME280_humidity;BME280_pressure;Samples;Min_cycle;Max_cycle;Signal;HPM_P1;HPM_P2
2022/01/09 00:00:08;;;;;;;0.30;0.30;;;;;;;;;;5028447;28;20208;-72
2022/01/09 00:02:34;;;;;;;0.20;0.20;;;;;;;;;;5029841;28;20212;-73
2022/01/09 00:05:01;;;;;;;0.20;0.20;;;;;;;;;;5021769;28;20249;-70
2022/01/09 00:07:27;;;;;;;0.20;0.20;;;;;;;;;;5029305;28;20209;-73
2022/01/09 00:09:55;;;;;;;0.20;0.20;;;;;;;;;;5020743;28;20221;-72
2022/01/09 00:12:22;;;;;;;0.27;0.27;;;;;;;;;;5011819;28;20256;-72
2022/01/09 00:14:49;;;;;;;0.20;0.20;;;;;;;;;;5007808;28;20446;-72
2022/01/09 00:17:16;;;;;;;0.30;0.30;;;;;;;;;;5009663;28;20240;-73
2022/01/09 00:19:42;;;;;;;0.20;0.20;;;;;;;;;;5004715;28;20256;-73
2022/01/09 00:22:08;;;;;;;0.23;0.23;;;;;;;;;;5020683;28;20205;-73
2022/01/09 00:24:34;;;;;;;0.20;0.20;;;;;;;;;;5009939;28;20225;-71
2022/01/09 00:27:01;;;;;;;0.20;0.20;;;;;;;;;;5004324;28;20206;-74
2022/01/09 00:29:27;;;;;;;0.23;0.23;;;;;;;;;;5004292;28;20536;-72
2022/01/09 00:31:55;;;;;;;0.20;0.20;;;;;;;;;;5004260;28;20206;-75
2022/01/09 00:34:21;;;;;;;0.20;0.20;;;;;;;;;;5004227;28;20374;-72
2022/01/09 00:36:47;;;;;;;0.30;0.30;;;;;;;;;;5004141;28;20213;-72
2022/01/09 00:39:13;;;;;;;0.30;0.30;;;;;;;;;;5020717;28;20205;-71
2022/01/09 00:41:40;;;;;;;0.27;0.27;;;;;;;;;;5023672;28;20272;-72
2022/01/09 00:44:06;;;;;;;0.37;0.37;;;;;;;;;;5023778;28;20209;-72
2022/01/09 00:46:33;;;;;;;0.60;0.60;;;;;;;;;;5023555;28;20223;-72
2022/01/09 00:49:01;;;;;;;0.30;0.30;;;;;;;;;;5028963;28;20220;-72
2022/01/09 00:51:27;;;;;;;0.30;0.30;;;;;;;;;;5043097;28;20255;-73
2022/01/09 00:53:53;;;;;;;0.30;0.30;;;;;;;;;;5043340;28;20201;-72
2022/01/09 00:56:19;;;;;;;0.33;0.33;;;;;;;;;;5043425;28;20210;-73
2022/01/09 00:58:45;;;;;;;0.27;0.27;;;;;;;;;;5043153;28;20250;-73
2022/01/09 01:01:12;;;;;;;0.30;0.30;;;;;;;;;;5042902;28;20211;-73
2022/01/09 01:03:38;;;;;;;0.40;0.40;;;;;;;;;;5043250;28;20504;-73
2022/01/09 01:06:05;;;;;;;0.30;0.30;;;;;;;;;;5042947;28;20205;-73
2022/01/09 01:08:32;;;;;;;0.30;0.30;;;;;;;;;;5042847;28;20201;-73
2022/01/09 01:10:58;;;;;;;1.03;0.50;;;;;;;;;;5043070;28;20551;-74
2022/01/09 01:13:24;;;;;;;0.30;0.30;;;;;;;;;;5023346;28;20310;-73
2022/01/09 01:15:50;;;;;;;0.30;0.30;;;;;;;;;;5003774;28;20252;-72
2022/01/09 01:18:16;;;;;;;0.30;0.30;;;;;;;;;;5003700;28;20210;-72
2022/01/09 01:20:43;;;;;;;0.30;0.30;;;;;;;;;;5002861;28;20248;-72
2022/01/09 01:23:10;;;;;;;0.30;0.30;;;;;;;;;;5003610;28;20544;-72
2022/01/09 01:25:36;;;;;;;0.30;0.30;;;;;;;;;;5003595;28;20205;-72
2022/01/09 01:28:03;;;;;;;0.30;0.30;;;;;;;;;;5003445;28;20277;-72
2022/01/09 01:30:29;;;;;;;0.30;0.30;;;;;;;;;;5003476;28;20221;-73
2022/01/09 01:32:55;;;;;;;0.33;0.33;;;;;;;;;;5003585;28;20212;-72
2022/01/09 01:35:22;;;;;;;0.20;0.20;;;;;;;;;;5003240;28;20214;-72
2022/01/09 01:37:48;;;;;;;0.30;0.30;;;;;;;;;;5003527;28;20576;-72
2022/01/09 01:40:17;;;;;;;0.43;0.43;;;;;;;;;;5003128;28;20294;-73
2022/01/09 01:42:43;;;;;;;0.30;0.30;;;;;;;;;;5003492;28;20206;-72
2022/01/09 01:45:10;;;;;;;0.30;0.30;;;;;;;;;;5003211;28;20206;-72
2022/01/09 01:47:37;;;;;;;3.40;3.30;;;;;;;;;;5003390;28;20429;-72
2022/01/09 01:50:03;;;;;;;0.30;0.30;;;;;;;;;;5031217;28;20220;-72
2022/01/09 01:52:35;;;;;;;0.30;0.30;;;;;;;;;;5042229;28;20236;-72
2022/01/09 01:55:01;;;;;;;0.30;0.30;;;;;;;;;;5042758;28;20381;-72
2022/01/09 01:57:30;;;;;;;0.30;0.30;;;;;;;;;;5042886;28;20488;-72
2022/01/09 01:59:56;;;;;;;0.30;0.30;;;;;;;;;;5042310;28;20511;-72
2022/01/09 02:02:25;;;;;;;0.20;0.20;;;;;;;;;;5042506;28;20504;-72
2022/01/09 02:04:51;;;;;;;0.30;0.30;;;;;;;;;;5042316;28;20279;-73
2022/01/09 02:07:18;;;;;;;0.30;0.30;;;;;;;;;;5042648;28;20205;-73
2022/01/09 02:09:44;;;;;;;0.30;0.30;;;;;;;;;;5042440;28;20229;-72
2022/01/09 02:12:11;;;;;;;0.20;0.20;;;;;;;;;;5042328;28;20259;-72
2022/01/09 02:14:43;;;;;;;0.20;0.20;;;;;;;;;;5042264;28;20204;-73
2022/01/09 02:17:09;;;;;;;0.30;0.30;;;;;;;;;;5037529;28;20371;-73
2022/01/09 02:19:35;;;;;;;0.27;0.27;;;;;;;;;;5022793;28;20205;-73
2022/01/09 02:22:03;;;;;;;0.77;0.77;;;;;;;;;;5022553;28;20209;-73
2022/01/09 02:24:29;;;;;;;0.30;0.30;;;;;;;;;;5022551;28;20252;-72
2022/01/09 02:26:55;;;;;;;0.30;0.30;;;;;;;;;;5022832;28;20247;-72
2022/01/09 02:29:22;;;;;;;1.13;1.13;;;;;;;;;;5021990;28;20455;-72
2022/01/09 02:31:48;;;;;;;0.20;0.20;;;;;;;;;;5002998;28;20505;-72
2022/01/09 02:34:14;;;;;;;0.30;0.30;;;;;;;;;;5006503;28;20205;-72
2022/01/09 02:36:40;;;;;;;0.30;0.30;;;;;;;;;;5025941;28;20224;-73
2022/01/09 02:39:11;;;;;;;0.20;0.20;;;;;;;;;;5026031;28;20228;-73
2022/01/09 02:41:37;;;;;;;0.30;0.30;;;;;;;;;;5025565;28;20199;-73
2022/01/09 02:44:07;;;;;;;0.30;0.30;;;;;;;;;;5025565;28;20201;-73
2022/01/09 02:46:43;;;;;;;0.30;0.30;;;;;;;;;;5025867;28;20200;-72
2022/01/09 02:49:09;;;;;;;0.30;0.30;;;;;;;;;;5025419;28;20193;-73
2022/01/09 02:51:36;;;;;;;0.47;0.47;;;;;;;;;;5024999;28;20409;-72
2022/01/09 02:55:05;;;;;;;0.30;0.30;;;;;;;;;;5025112;28;20263;-71
2022/01/09 02:56:51;;;;;;;0.30;0.30;;;;;;;;;;5025270;28;20208;-72
2022/01/09 02:59:17;;;;;;;0.23;0.23;;;;;;;;;;5024984;28;20223;-72
2022/01/09 03:01:43;;;;;;;0.40;0.40;;;;;;;;;;5025381;28;20208;-72
2022/01/09 03:04:10;;;;;;;0.30;0.30;;;;;;;;;;5025208;28;20209;-72
2022/01/09 03:06:36;;;;;;;0.30;0.30;;;;;;;;;;5026019;28;20205;-72
2022/01/09 03:09:05;;;;;;;0.30;0.30;;;;;;;;;;5025183;28;20216;-71
2022/01/09 03:11:32;;;;;;;0.30;0.30;;;;;;;;;;5025164;28;20252;-72
2022/01/09 03:13:59;;;;;;;0.30;0.30;;;;;;;;;;5024218;28;20205;-72
2022/01/09 03:16:26;;;;;;;0.30;0.30;;;;;;;;;;5025072;28;20532;-72
2022/01/09 03:18:52;;;;;;;0.30;0.30;;;;;;;;;;5025274;28;20555;-72
2022/01/09 03:21:18;;;;;;;0.30;0.30;;;;;;;;;;5025164;28;20208;-71
2022/01/09 03:23:44;;;;;;;0.30;0.30;;;;;;;;;;5025215;28;20303;-71
2022/01/09 03:26:10;;;;;;;0.30;0.30;;;;;;;;;;5025188;28;20215;-72
2022/01/09 03:28:37;;;;;;;0.23;0.23;;;;;;;;;;5025090;28;20205;-72
2022/01/09 03:31:04;;;;;;;0.27;0.27;;;;;;;;;;5024719;28;20225;-71
2022/01/09 03:33:31;;;;;;;0.30;0.30;;;;;;;;;;5025037;28;20205;-72
2022/01/09 03:35:57;;;;;;;0.30;0.30;;;;;;;;;;5024917;28;20252;-72
2022/01/09 03:38:23;;;;;;;0.30;0.30;;;;;;;;;;5024915;28;20228;-73
2022/01/09 03:40:49;;;;;;;0.60;0.60;;;;;;;;;;5024465;28;20205;-72
2022/01/09 03:43:17;;;;;;;0.40;0.40;;;;;;;;;;5024348;28;20205;-71
2022/01/09 03:45:43;;;;;;;0.30;0.30;;;;;;;;;;5024767;28;20209;-71
2022/01/09 03:48:11;;;;;;;0.30;0.30;;;;;;;;;;5024783;28;20214;-73
2022/01/09 03:50:37;;;;;;;0.30;0.30;;;;;;;;;;5024714;28;20263;-72
2022/01/09 03:53:04;;;;;;;0.30;0.30;;;;;;;;;;5024270;28;20303;-71
2022/01/09 03:55:30;;;;;;;0.30;0.30;;;;;;;;;;5024360;28;20212;-72
2022/01/09 03:57:57;;;;;;;0.30;0.30;;;;;;;;;;5024438;28;20221;-72
2022/01/09 04:00:24;;;;;;;0.30;0.30;;;;;;;;;;5024447;28;20236;-72
2022/01/09 04:02:51;;;;;;;0.30;0.30;;;;;;;;;;5024184;28;20205;-72
2022/01/09 04:05:19;;;;;;;0.40;0.40;;;;;;;;;;5024407;28;20209;-72
2022/01/09 04:07:45;;;;;;;0.50;0.50;;;;;;;;;;5024358;28;20520;-72
2022/01/09 04:10:11;;;;;;;0.30;0.30;;;;;;;;;;5023933;28;20271;-72
2022/01/09 04:12:47;;;;;;;0.30;0.30;;;;;;;;;;5023910;28;20237;-72
2022/01/09 04:15:14;;;;;;;0.30;0.30;;;;;;;;;;5024006;28;20224;-72
2022/01/09 04:17:49;;;;;;;0.30;0.30;;;;;;;;;;5024076;28;20211;-72
2022/01/09 04:20:16;;;;;;;0.30;0.30;;;;;;;;;;5023767;28;20216;-73
2022/01/09 04:22:43;;;;;;;0.30;0.30;;;;;;;;;;5023948;28;20205;-72
2022/01/09 04:25:10;;;;;;;0.30;0.30;;;;;;;;;;5024034;28;20535;-73
2022/01/09 04:27:36;;;;;;;0.30;0.30;;;;;;;;;;5023972;28;20205;-72
2022/01/09 04:30:03;;;;;;;0.30;0.30;;;;;;;;;;5023532;28;20241;-73
2022/01/09 04:32:30;;;;;;;0.30;0.30;;;;;;;;;;5023823;28;20209;-72
2022/01/09 04:34:56;;;;;;;0.30;0.30;;;;;;;;;;5023857;28;20213;-72
2022/01/09 04:37:23;;;;;;;0.30;0.30;;;;;;;;;;5023880;28;20263;-73
2022/01/09 04:39:52;;;;;;;0.87;0.87;;;;;;;;;;5023423;28;20209;-73
2022/01/09 04:42:19;;;;;;;0.53;0.53;;;;;;;;;;5023769;28;20373;-72
2022/01/09 04:44:45;;;;;;;0.30;0.30;;;;;;;;;;5023408;28;20321;-72
2022/01/09 04:47:14;;;;;;;0.30;0.30;;;;;;;;;;5023345;28;20208;-72
2022/01/09 04:49:43;;;;;;;0.30;0.30;;;;;;;;;;5034704;28;20200;-73
2022/01/09 04:52:13;;;;;;;0.30;0.30;;;;;;;;;;5042937;28;20228;-73
2022/01/09 04:54:39;;;;;;;0.30;0.30;;;;;;;;;;5042582;28;20227;-72
2022/01/09 04:57:07;;;;;;;0.30;0.30;;;;;;;;;;5043054;28;20208;-73
2022/01/09 04:59:33;;;;;;;0.40;0.40;;;;;;;;;;5043047;28;20508;-72
2022/01/09 05:01:59;;;;;;;0.30;0.30;;;;;;;;;;5042582;28;20201;-72
2022/01/09 05:04:26;;;;;;;0.30;0.30;;;;;;;;;;5042771;28;20270;-72
2022/01/09 05:06:52;;;;;;;0.30;0.30;;;;;;;;;;5042845;28;20205;-72
2022/01/09 05:09:18;;;;;;;0.20;0.20;;;;;;;;;;5042960;28;20232;-71
2022/01/09 05:11:44;;;;;;;0.30;0.30;;;;;;;;;;5042765;28;20287;-72
2022/01/09 05:14:12;;;;;;;0.30;0.30;;;;;;;;;;5039212;28;20217;-72
2022/01/09 05:16:42;;;;;;;0.30;0.30;;;;;;;;;;5005193;28;20502;-71
2022/01/09 05:19:17;;;;;;;0.20;0.20;;;;;;;;;;5003593;28;20530;-71
2022/01/09 05:21:43;;;;;;;0.37;0.37;;;;;;;;;;5003746;28;20200;-72
2022/01/09 05:24:09;;;;;;;0.50;0.50;;;;;;;;;;5003217;28;20225;-72
2022/01/09 05:26:36;;;;;;;0.23;0.23;;;;;;;;;;5003230;28;20216;-72
2022/01/09 05:29:02;;;;;;;0.30;0.30;;;;;;;;;;5003220;28;20244;-72
2022/01/09 05:31:29;;;;;;;0.30;0.30;;;;;;;;;;5003513;28;20324;-73
2022/01/09 05:33:56;;;;;;;0.30;0.30;;;;;;;;;;5003563;28;20261;-72
2022/01/09 05:36:22;;;;;;;1.87;1.70;;;;;;;;;;5003349;28;20493;-72
2022/01/09 05:38:48;;;;;;;0.30;0.30;;;;;;;;;;5003429;28;20224;-72
2022/01/09 05:41:15;;;;;;;0.30;0.30;;;;;;;;;;5003351;28;20270;-71
2022/01/09 05:43:41;;;;;;;0.30;0.30;;;;;;;;;;5002935;28;20229;-72
2022/01/09 05:46:07;;;;;;;0.30;0.30;;;;;;;;;;5003346;28;20209;-72
2022/01/09 05:48:35;;;;;;;0.30;0.30;;;;;;;;;;5006728;28;20205;-72
2022/01/09 05:51:01;;;;;;;0.30;0.30;;;;;;;;;;5042306;28;20228;-72
2022/01/09 05:53:27;;;;;;;0.30;0.30;;;;;;;;;;5042396;28;20216;-72
2022/01/09 05:55:53;;;;;;;0.30;0.30;;;;;;;;;;5042307;28;20243;-72
2022/01/09 05:58:20;;;;;;;0.30;0.30;;;;;;;;;;5042622;28;20227;-72
2022/01/09 06:00:46;;;;;;;0.30;0.30;;;;;;;;;;5042636;28;20201;-72
2022/01/09 06:03:12;;;;;;;0.30;0.30;;;;;;;;;;5042369;28;20196;-72
2022/01/09 06:05:40;;;;;;;0.30;0.30;;;;;;;;;;5042455;28;20288;-72
2022/01/09 06:08:06;;;;;;;0.27;0.27;;;;;;;;;;5046223;28;20208;-72
2022/01/09 06:10:32;;;;;;;0.30;0.30;;;;;;;;;;5046987;28;20271;-72
2022/01/09 06:12:59;;;;;;;0.30;0.30;;;;;;;;;;5046150;28;20246;-71
2022/01/09 06:15:25;;;;;;;0.30;0.30;;;;;;;;;;5046536;28;20510;-73
2022/01/09 06:17:51;;;;;;;0.30;0.30;;;;;;;;;;5046191;28;20368;-72
2022/01/09 06:20:17;;;;;;;1.10;1.03;;;;;;;;;;5046373;28;20204;-72
2022/01/09 06:22:45;;;;;;;0.30;0.30;;;;;;;;;;5046201;28;20250;-72
2022/01/09 06:25:12;;;;;;;0.30;0.30;;;;;;;;;;5046069;28;20208;-72
2022/01/09 06:27:38;;;;;;;0.30;0.30;;;;;;;;;;5031074;28;20443;-72
2022/01/09 06:30:05;;;;;;;0.20;0.20;;;;;;;;;;5026175;28;20264;-72
2022/01/09 06:32:31;;;;;;;1.00;0.93;;;;;;;;;;5026033;28;20225;-71
2022/01/09 06:34:58;;;;;;;0.20;0.20;;;;;;;;;;5026083;28;20211;-72
2022/01/09 06:37:24;;;;;;;0.20;0.20;;;;;;;;;;5026092;28;20206;-72
2022/01/09 06:39:52;;;;;;;0.50;0.50;;;;;;;;;;5025770;28;20205;-72
2022/01/09 06:42:18;;;;;;;0.30;0.30;;;;;;;;;;5026000;28;20201;-72
2022/01/09 06:44:44;;;;;;;0.30;0.30;;;;;;;;;;5025914;28;20205;-72
2022/01/09 06:47:10;;;;;;;0.30;0.30;;;;;;;;;;5025628;28;20212;-73
2022/01/09 06:49:36;;;;;;;0.30;0.30;;;;;;;;;;5025753;28;20256;-72
2022/01/09 06:52:03;;;;;;;2.57;2.47;;;;;;;;;;5025156;28;20233;-72
2022/01/09 06:54:30;;;;;;;0.30;0.30;;;;;;;;;;5025504;28;20209;-72
2022/01/09 06:56:57;;;;;;;2.47;1.50;;;;;;;;;;5025807;28;20209;-72
2022/01/09 06:59:24;;;;;;;0.20;0.20;;;;;;;;;;5025787;28;20389;-73
2022/01/09 07:01:50;;;;;;;0.30;0.30;;;;;;;;;;5025435;28;20202;-73
2022/01/09 07:04:17;;;;;;;0.30;0.30;;;;;;;;;;5025736;28;20276;-73
2022/01/09 07:06:43;;;;;;;0.30;0.30;;;;;;;;;;5025253;28;20209;-72
2022/01/09 07:09:12;;;;;;;0.30;0.30;;;;;;;;;;5025617;28;20205;-72
2022/01/09 07:11:38;;;;;;;0.30;0.30;;;;;;;;;;5025290;28;20221;-72
2022/01/09 07:14:06;;;;;;;0.20;0.20;;;;;;;;;;5025406;28;20248;-74
2022/01/09 07:16:32;;;;;;;0.20;0.20;;;;;;;;;;5008982;28;20237;-73
2022/01/09 07:18:58;;;;;;;0.30;0.30;;;;;;;;;;5014814;28;20373;-73
2022/01/09 07:21:24;;;;;;;0.30;0.30;;;;;;;;;;5025184;28;20247;-73
2022/01/09 07:23:50;;;;;;;0.20;0.20;;;;;;;;;;5025197;28;20528;-73
2022/01/09 07:26:17;;;;;;;0.30;0.30;;;;;;;;;;5024976;28;20198;-73
2022/01/09 07:28:43;;;;;;;0.40;0.40;;;;;;;;;;5024684;28;20229;-73
2022/01/09 07:31:10;;;;;;;0.30;0.30;;;;;;;;;;5024846;28;20225;-73
2022/01/09 07:33:36;;;;;;;0.30;0.30;;;;;;;;;;5024894;28;20206;-71
2022/01/09 07:36:03;;;;;;;0.20;0.20;;;;;;;;;;5024773;28;20293;-72
2022/01/09 07:38:29;;;;;;;0.30;0.30;;;;;;;;;;5025047;28;20205;-71
2022/01/09 07:40:55;;;;;;;0.30;0.30;;;;;;;;;;5024968;28;20222;-72
2022/01/09 07:43:22;;;;;;;0.20;0.20;;;;;;;;;;5024927;28;20232;-72
2022/01/09 07:45:48;;;;;;;0.40;0.40;;;;;;;;;;5024752;28;20206;-72
2022/01/09 07:48:21;;;;;;;0.30;0.30;;;;;;;;;;5024514;28;20206;-72
2022/01/09 07:50:47;;;;;;;0.30;0.30;;;;;;;;;;5005169;28;20428;-73
2022/01/09 07:53:15;;;;;;;0.30;0.30;;;;;;;;;;5004758;28;20281;-72
2022/01/09 07:55:41;;;;;;;0.20;0.20;;;;;;;;;;5004831;28;20512;-72
2022/01/09 07:58:07;;;;;;;0.27;0.27;;;;;;;;;;5004983;28;20248;-71
2022/01/09 08:00:34;;;;;;;1.50;1.50;;;;;;;;;;5004960;28;20553;-71
2022/01/09 08:03:00;;;;;;;1.10;1.10;;;;;;;;;;5004508;28;20240;-72
2022/01/09 08:05:27;;;;;;;0.30;0.30;;;;;;;;;;5004878;28;20514;-71
2022/01/09 08:07:54;;;;;;;0.20;0.20;;;;;;;;;;5022570;28;20247;-73
2022/01/09 08:10:20;;;;;;;0.20;0.20;;;;;;;;;;5024014;28;20205;-72
2022/01/09 08:12:46;;;;;;;0.30;0.30;;;;;;;;;;5024084;28;20225;-71
2022/01/09 08:15:12;;;;;;;0.30;0.30;;;;;;;;;;5023914;28;20216;-71
2022/01/09 08:17:39;;;;;;;0.30;0.30;;;;;;;;;;5023913;28;20253;-72
2022/01/09 08:20:05;;;;;;;0.30;0.30;;;;;;;;;;5023984;28;20205;-72
2022/01/09 08:22:35;;;;;;;0.30;0.30;;;;;;;;;;5024036;28;20247;-73
2022/01/09 08:25:03;;;;;;;0.27;0.27;;;;;;;;;;5024559;28;20480;-73
2022/01/09 08:27:29;;;;;;;0.30;0.30;;;;;;;;;;5024020;28;20209;-71
2022/01/09 08:29:55;;;;;;;0.20;0.20;;;;;;;;;;5024038;28;20205;-71
2022/01/09 08:32:22;;;;;;;0.23;0.23;;;;;;;;;;5020724;28;20225;-71
2022/01/09 08:34:48;;;;;;;0.30;0.30;;;;;;;;;;5022331;28;20201;-72
2022/01/09 08:37:14;;;;;;;0.20;0.20;;;;;;;;;;5014878;28;20493;-73
2022/01/09 08:39:44;;;;;;;0.20;0.20;;;;;;;;;;5017377;28;20210;-72
2022/01/09 08:42:10;;;;;;;0.20;0.20;;;;;;;;;;5013896;28;20264;-72
2022/01/09 08:44:37;;;;;;;0.30;0.30;;;;;;;;;;5003766;28;20234;-72
2022/01/09 08:47:04;;;;;;;0.20;0.20;;;;;;;;;;5003596;28;20201;-72
2022/01/09 08:49:30;;;;;;;0.20;0.20;;;;;;;;;;5008524;28;20206;-72
2022/01/09 08:51:56;;;;;;;0.20;0.20;;;;;;;;;;5018933;28;20237;-73
2022/01/09 08:54:23;;;;;;;0.30;0.30;;;;;;;;;;5020436;28;20208;-72
2022/01/09 08:56:51;;;;;;;0.30;0.30;;;;;;;;;;5006707;28;20249;-72
2022/01/09 08:59:17;;;;;;;5.40;5.00;;;;;;;;;;5042396;28;20209;-72
2022/01/09 09:01:43;;;;;;;0.20;0.20;;;;;;;;;;5030053;28;20200;-72
2022/01/09 09:04:10;;;;;;;0.20;0.20;;;;;;;;;;5010652;28;20253;-71
2022/01/09 09:06:37;;;;;;;0.23;0.23;;;;;;;;;;5004334;28;20205;-72
2022/01/09 09:09:03;;;;;;;0.20;0.20;;;;;;;;;;5010345;28;20205;-72
2022/01/09 09:11:29;;;;;;;0.20;0.20;;;;;;;;;;5017975;28;20225;-73
2022/01/09 09:13:57;;;;;;;0.20;0.20;;;;;;;;;;5017025;28;20288;-73
2022/01/09 09:16:23;;;;;;;0.20;0.20;;;;;;;;;;5013011;28;20217;-73
2022/01/09 09:18:50;;;;;;;0.20;0.20;;;;;;;;;;5010443;28;20201;-72
2022/01/09 09:21:17;;;;;;;0.23;0.23;;;;;;;;;;5013677;28;20213;-72
2022/01/09 09:23:44;;;;;;;0.30;0.30;;;;;;;;;;5005948;28;20517;-73
2022/01/09 09:26:10;;;;;;;0.20;0.20;;;;;;;;;;5013890;28;20205;-73
2022/01/09 09:28:37;;;;;;;0.27;0.27;;;;;;;;;;5014273;28;20440;-73
2022/01/09 09:31:05;;;;;;;1.07;1.07;;;;;;;;;;5007415;28;20320;-73
2022/01/09 09:33:31;;;;;;;0.30;0.30;;;;;;;;;;5009860;28;20232;-74
2022/01/09 09:35:59;;;;;;;0.20;0.20;;;;;;;;;;5022480;28;20209;-73
2022/01/09 09:38:26;;;;;;;0.20;0.20;;;;;;;;;;5022857;28;20490;-73
2022/01/09 09:40:52;;;;;;;0.20;0.20;;;;;;;;;;5024895;28;20543;-73
2022/01/09 09:43:19;;;;;;;0.20;0.20;;;;;;;;;;5034503;28;20251;-71
2022/01/09 09:45:45;;;;;;;0.20;0.20;;;;;;;;;;5030226;28;20228;-73
2022/01/09 09:48:13;;;;;;;0.27;0.27;;;;;;;;;;5034792;28;20206;-68
2022/01/09 09:50:39;;;;;;;0.83;0.83;;;;;;;;;;5018114;28;20228;-75
2022/01/09 09:53:06;;;;;;;0.20;0.20;;;;;;;;;;5016751;28;20232;-72
2022/01/09 09:55:32;;;;;;;0.20;0.20;;;;;;;;;;5024482;28;20427;-69
2022/01/09 09:57:59;;;;;;;0.20;0.20;;;;;;;;;;5019285;28;20232;-73
2022/01/09 10:00:25;;;;;;;0.20;0.20;;;;;;;;;;5023765;28;20211;-74
2022/01/09 10:02:52;;;;;;;0.20;0.20;;;;;;;;;;5020887;28;20197;-74
2022/01/09 10:05:21;;;;;;;0.20;0.20;;;;;;;;;;5026302;28;20198;-74
2022/01/09 10:07:48;;;;;;;0.20;0.20;;;;;;;;;;5025891;28;20205;-73
2022/01/09 10:10:15;;;;;;;0.20;0.20;;;;;;;;;;5023467;28;20314;-73
2022/01/09 10:12:42;;;;;;;0.20;0.20;;;;;;;;;;5021414;28;20228;-72
2022/01/09 10:15:10;;;;;;;0.47;0.47;;;;;;;;;;5033309;28;20200;-74
2022/01/09 10:17:40;;;;;;;0.20;0.20;;;;;;;;;;5026321;28;20197;-74
2022/01/09 10:20:11;;;;;;;0.20;0.20;;;;;;;;;;5035192;28;20328;-75
2022/01/09 10:22:40;;;;;;;0.20;0.20;;;;;;;;;;5033972;28;20220;-75
2022/01/09 10:25:20;;;;;;;0.20;0.20;;;;;;;;;;5018542;28;20210;-74
2022/01/09 10:27:48;;;;;;;0.20;0.20;;;;;;;;;;5016621;28;20214;-74
2022/01/09 10:30:15;;;;;;;0.20;0.20;;;;;;;;;;5016955;28;20205;-74
2022/01/09 10:32:41;;;;;;;0.20;0.20;;;;;;;;;;5011095;28;20285;-75
2022/01/09 10:35:14;;;;;;;0.20;0.20;;;;;;;;;;5012383;28;20469;-71
2022/01/09 10:37:42;;;;;;;0.20;0.20;;;;;;;;;;5020189;28;20201;-71
2022/01/09 10:40:10;;;;;;;0.23;0.23;;;;;;;;;;5020151;28;20206;-71
2022/01/09 10:42:37;;;;;;;0.20;0.20;;;;;;;;;;5022920;28;20205;-73
2022/01/09 10:45:16;;;;;;;0.30;0.30;;;;;;;;;;5012073;28;20248;-68
2022/01/09 10:47:43;;;;;;;0.20;0.20;;;;;;;;;;5014296;28;20389;-72
2022/01/09 10:50:10;;;;;;;0.20;0.20;;;;;;;;;;5013850;28;20202;-71
2022/01/09 10:52:41;;;;;;;0.20;0.20;;;;;;;;;;5004354;28;20305;-73
2022/01/09 10:55:09;;;;;;;0.20;0.20;;;;;;;;;;5012341;28;20213;-75
2022/01/09 10:57:38;;;;;;;0.20;0.20;;;;;;;;;;5014511;28;20215;-72
2022/01/09 11:00:06;;;;;;;0.20;0.20;;;;;;;;;;5023683;28;20209;-72
2022/01/09 11:02:32;;;;;;;0.20;0.20;;;;;;;;;;5013716;28;20255;-73
2022/01/09 11:04:58;;;;;;;0.10;0.10;;;;;;;;;;5020009;28;20300;-71
2022/01/09 11:07:25;;;;;;;0.20;0.20;;;;;;;;;;5025591;28;20430;-72
2022/01/09 11:09:52;;;;;;;0.20;0.20;;;;;;;;;;5025543;28;20205;-73
2022/01/09 11:12:21;;;;;;;0.20;0.20;;;;;;;;;;5025383;28;20233;-71
2022/01/09 11:14:49;;;;;;;0.20;0.20;;;;;;;;;;5025448;28;20212;-73
2022/01/09 11:17:16;;;;;;;0.20;0.20;;;;;;;;;;5020089;28;20240;-73
2022/01/09 11:19:42;;;;;;;0.20;0.20;;;;;;;;;;5025303;28;20206;-72
2022/01/09 11:22:10;;;;;;;0.20;0.20;;;;;;;;;;5025363;28;20521;-72
2022/01/09 11:24:52;;;;;;;0.20;0.20;;;;;;;;;;5021841;28;20201;-68
2022/01/09 11:27:24;;;;;;;0.20;0.20;;;;;;;;;;5024846;28;20352;-71
2022/01/09 11:29:55;;;;;;;0.20;0.20;;;;;;;;;;5030059;28;20198;-71
2022/01/09 11:32:28;;;;;;;8.27;7.53;;;;;;;;;;5038275;28;20216;-71
2022/01/09 11:34:58;;;;;;;0.20;0.20;;;;;;;;;;5030727;28;20458;-73
2022/01/09 11:37:31;;;;;;;0.20;0.20;;;;;;;;;;5035216;28;20206;-72
2022/01/09 11:39:57;;;;;;;0.20;0.20;;;;;;;;;;5044462;28;20449;-74
2022/01/09 11:42:24;;;;;;;0.20;0.20;;;;;;;;;;5012249;28;20223;-73
2022/01/09 11:44:51;;;;;;;0.20;0.20;;;;;;;;;;5009706;28;20256;-75
2022/01/09 11:47:18;;;;;;;0.20;0.20;;;;;;;;;;5015405;28;20443;-71
2022/01/09 11:50:02;;;;;;;0.20;0.20;;;;;;;;;;5013273;28;20252;-71
2022/01/09 11:52:29;;;;;;;0.20;0.20;;;;;;;;;;5010524;28;20254;-72
2022/01/09 11:54:57;;;;;;;0.20;0.20;;;;;;;;;;5008954;28;20214;-71
2022/01/09 11:57:40;;;;;;;0.20;0.20;;;;;;;;;;5004976;28;20211;-71
2022/01/09 12:00:07;;;;;;;0.20;0.20;;;;;;;;;;5007456;28;20281;-72
2022/01/09 12:02:35;;;;;;;0.10;0.10;;;;;;;;;;5010800;28;20419;-71
2022/01/09 12:05:02;;;;;;;3.03;2.93;;;;;;;;;;5018535;28;20210;-72
2022/01/09 12:07:44;;;;;;;0.20;0.20;;;;;;;;;;5021609;28;20280;-72
2022/01/09 12:10:27;;;;;;;0.20;0.20;;;;;;;;;;5008095;28;20223;-70
2022/01/09 12:12:54;;;;;;;0.20;0.20;;;;;;;;;;5024296;28;20571;-70
2022/01/09 12:15:33;;;;;;;0.20;0.20;;;;;;;;;;5008271;28;20214;-70
2022/01/09 12:18:02;;;;;;;0.20;0.20;;;;;;;;;;5004660;28;20222;-70
2022/01/09 12:20:28;;;;;;;0.20;0.20;;;;;;;;;;5004658;28;20552;-70
2022/01/09 12:23:05;;;;;;;0.20;0.20;;;;;;;;;;5004548;28;20269;-70
2022/01/09 12:25:53;;;;;;;0.20;0.20;;;;;;;;;;5004593;28;20360;-71
2022/01/09 12:28:35;;;;;;;0.20;0.20;;;;;;;;;;5004488;28;20229;-69
2022/01/09 12:31:01;;;;;;;0.20;0.20;;;;;;;;;;5005049;28;20435;-70
2022/01/09 12:33:45;;;;;;;0.30;0.30;;;;;;;;;;5004377;28;20233;-70
2022/01/09 12:36:13;;;;;;;0.20;0.20;;;;;;;;;;5003924;28;20198;-70
2022/01/09 12:38:41;;;;;;;0.20;0.20;;;;;;;;;;5004075;28;20213;-71
2022/01/09 12:41:08;;;;;;;0.20;0.20;;;;;;;;;;5016050;28;20211;-71
2022/01/09 12:43:36;;;;;;;0.10;0.10;;;;;;;;;;5023823;28;20365;-70
2022/01/09 12:46:10;;;;;;;0.20;0.20;;;;;;;;;;5023692;28;20265;-70
2022/01/09 12:48:36;;;;;;;1.70;1.70;;;;;;;;;;5023417;28;20267;-71
2022/01/09 12:51:08;;;;;;;0.20;0.20;;;;;;;;;;5023522;28;20230;-71
2022/01/09 12:53:37;;;;;;;0.20;0.20;;;;;;;;;;5023208;28;20384;-71
2022/01/09 12:56:04;;;;;;;0.20;0.20;;;;;;;;;;5023289;28;20253;-70
2022/01/09 12:58:32;;;;;;;0.20;0.20;;;;;;;;;;5023285;28;20206;-70
2022/01/09 13:01:01;;;;;;;0.20;0.20;;;;;;;;;;5017914;28;20273;-70
2022/01/09 13:18:17;;;;;;;0.10;0.10;;;;;;;;;;5161469;27;20728;-73
2022/01/09 13:20:44;;;;;;;0.57;0.57;;;;;;;;;;5161140;27;20207;-73
2022/01/09 13:23:11;;;;;;;0.20;0.20;;;;;;;;;;5173238;27;20532;-73
2022/01/09 13:25:44;;;;;;;0.20;0.20;;;;;;;;;;5178736;27;20209;-73
2022/01/09 13:28:20;;;;;;;0.20;0.20;;;;;;;;;;5175208;27;20194;-73
2022/01/09 13:30:46;;;;;;;0.20;0.20;;;;;;;;;;5170997;27;20198;-72
2022/01/09 13:33:13;;;;;;;0.30;0.30;;;;;;;;;;5161827;27;20203;-73
2022/01/09 13:35:41;;;;;;;0.20;0.20;;;;;;;;;;5165951;27;20243;-71
2022/01/09 13:38:08;;;;;;;0.20;0.20;;;;;;;;;;5169841;27;20265;-72
2022/01/09 13:40:34;;;;;;;0.20;0.20;;;;;;;;;;5169647;27;20491;-73
2022/01/09 13:43:01;;;;;;;0.73;0.73;;;;;;;;;;5172860;27;20211;-72
2022/01/09 13:45:27;;;;;;;0.23;0.23;;;;;;;;;;5161775;27;20270;-71
2022/01/09 13:47:56;;;;;;;0.20;0.20;;;;;;;;;;5161481;27;20541;-71
2022/01/09 13:50:23;;;;;;;0.20;0.20;;;;;;;;;;5170107;27;20206;-73
2022/01/09 13:52:51;;;;;;;0.20;0.20;;;;;;;;;;5161719;27;20245;-72
2022/01/09 13:55:19;;;;;;;0.20;0.20;;;;;;;;;;5161697;27;20201;-71
2022/01/09 13:57:46;;;;;;;0.20;0.20;;;;;;;;;;5171031;27;20200;-71
2022/01/09 14:00:13;;;;;;;0.20;0.20;;;;;;;;;;5177234;27;20201;-71
2022/01/09 14:02:40;;;;;;;0.20;0.20;;;;;;;;;;5172764;27;20434;-72
2022/01/09 14:05:10;;;;;;;0.20;0.20;;;;;;;;;;5172403;27;20265;-71
2022/01/09 14:07:37;;;;;;;0.20;0.20;;;;;;;;;;5173830;27;20516;-70
2022/01/09 14:10:05;;;;;;;0.20;0.20;;;;;;;;;;5173287;27;20202;-71
2022/01/09 14:12:34;;;;;;;0.20;0.20;;;;;;;;;;5173148;27;20231;-72
2022/01/09 14:15:10;;;;;;;0.20;0.20;;;;;;;;;;5175615;27;20200;-70
2022/01/09 14:17:37;;;;;;;0.20;0.20;;;;;;;;;;5176057;27;20227;-70
2022/01/09 14:20:16;;;;;;;0.20;0.20;;;;;;;;;;5167220;27;20206;-69
2022/01/09 14:22:44;;;;;;;0.20;0.20;;;;;;;;;;5167929;27;20202;-70
2022/01/09 14:25:12;;;;;;;0.20;0.20;;;;;;;;;;5167633;27;20201;-71
2022/01/09 14:27:40;;;;;;;0.20;0.20;;;;;;;;;;5167790;27;20549;-71
2022/01/09 14:30:21;;;;;;;0.20;0.20;;;;;;;;;;5161294;27;20241;-70
2022/01/09 14:32:49;;;;;;;0.40;0.40;;;;;;;;;;5165410;27;20205;-70
2022/01/09 14:35:30;;;;;;;1.50;1.50;;;;;;;;;;5167480;27;20235;-71
2022/01/09 14:38:00;;;;;;;0.23;0.23;;;;;;;;;;5165036;27;20235;-72
2022/01/09 14:40:28;;;;;;;0.20;0.20;;;;;;;;;;5158126;27;20455;-72
2022/01/09 14:42:55;;;;;;;0.60;0.60;;;;;;;;;;5166976;27;20201;-70
2022/01/09 14:45:21;;;;;;;0.20;0.20;;;;;;;;;;5167151;27;20259;-71
2022/01/09 14:47:48;;;;;;;0.20;0.20;;;;;;;;;;5159294;27;20221;-71
2022/01/09 14:50:14;;;;;;;0.20;0.20;;;;;;;;;;5161081;27;20461;-71
2022/01/09 14:52:40;;;;;;;0.30;0.30;;;;;;;;;;5166966;27;20243;-69
2022/01/09 14:55:08;;;;;;;0.20;0.20;;;;;;;;;;5167390;27;20249;-71
2022/01/09 14:57:35;;;;;;;0.20;0.20;;;;;;;;;;5167021;27;20198;-71
2022/01/09 15:00:02;;;;;;;0.20;0.20;;;;;;;;;;5166956;27;20194;-70